createdAt,value
2022-10-19T00:01:08.600Z,84.68
2022-10-19T00:03:36.819Z,84.71
2022-10-19T00:06:26.181Z,84.19
2022-10-19T00:08:56.396Z,84.01
2022-10-19T00:11:24.552Z,84.04
2022-10-19T00:13:52.494Z,83.86
2022-10-19T00:16:20.324Z,83.98
2022-10-19T00:18:47.441Z,83.60
2022-10-19T00:21:17.475Z,83.51
2022-10-19T00:23:45.421Z,83.95
2022-10-19T00:26:12.827Z,83.52
2022-10-19T00:28:39.994Z,83.26
2022-10-19T00:31:09.705Z,82.89
2022-10-19T00:33:37.485Z,83.38
2022-10-19T00:36:05.873Z,83.02
2022-10-19T00:38:33.208Z,83.02
2022-10-19T00:41:00.293Z,82.74
2022-10-19T00:43:30.822Z,82.24
2022-10-19T00:45:57.941Z,82.58
2022-10-19T00:48:28.541Z,82.41
2022-10-19T00:50:59.046Z,83.00
2022-10-19T00:53:28.854Z,82.84
2022-10-19T00:55:56.040Z,83.03
2022-10-19T00:58:23.149Z,82.98
2022-10-19T01:00:50.266Z,83.29
2022-10-19T01:03:17.726Z,82.83
2022-10-19T01:05:48.275Z,82.49
2022-10-19T01:08:15.826Z,83.00
2022-10-19T01:11:04.529Z,82.98
2022-10-19T01:13:59.126Z,83.54
2022-10-19T01:16:48.339Z,83.07
2022-10-19T01:19:24.915Z,82.86
2022-10-19T01:22:03.066Z,82.49
2022-10-19T01:24:40.720Z,82.74
2022-10-19T01:27:28.648Z,82.61
2022-10-19T01:30:01.993Z,82.22
2022-10-19T01:33:19.813Z,82.20
2022-10-19T01:35:52.391Z,82.70
2022-10-19T01:38:36.203Z,82.93
2022-10-19T01:41:15.170Z,82.86
2022-10-19T01:43:51.040Z,82.48
2022-10-19T01:46:31.985Z,82.53
2022-10-19T01:49:04.244Z,82.94
2022-10-19T01:51:37.484Z,83.53
2022-10-19T01:54:07.347Z,83.30
2022-10-19T01:56:35.849Z,82.82
2022-10-19T01:59:07.479Z,82.80
2022-10-19T02:01:35.927Z,83.52
2022-10-19T02:04:03.489Z,83.39
2022-10-19T02:06:30.592Z,83.69
2022-10-19T02:08:57.642Z,83.60
2022-10-19T02:11:25.375Z,83.60
2022-10-19T02:14:02.008Z,83.94
2022-10-19T02:16:41.122Z,83.42
2022-10-19T02:19:09.487Z,83.60
2022-10-19T02:21:36.617Z,83.61
2022-10-19T02:24:03.858Z,83.47
2022-10-19T02:26:31.004Z,83.26
2022-10-19T02:28:58.132Z,83.44
2022-10-19T02:31:25.675Z,83.69
2022-10-19T02:33:53.136Z,83.45
2022-10-19T02:36:20.612Z,83.42
2022-10-19T02:38:47.716Z,83.60
2022-10-19T02:41:26.000Z,83.18
2022-10-19T02:44:26.589Z,83.55
2022-10-19T02:47:06.568Z,83.63
2022-10-19T02:49:35.543Z,83.52
2022-10-19T02:52:05.022Z,83.10
2022-10-19T02:54:32.189Z,83.50
2022-10-19T02:56:59.584Z,83.33
2022-10-19T02:59:26.671Z,83.30
2022-10-19T03:01:53.923Z,83.55
2022-10-19T03:04:21.076Z,83.83
2022-10-19T03:06:48.180Z,83.49
2022-10-19T03:09:15.331Z,83.71
2022-10-19T03:11:42.379Z,84.06
2022-10-19T03:14:09.586Z,84.08
2022-10-19T03:16:36.661Z,83.71
2022-10-19T03:19:03.812Z,83.42
2022-10-19T03:21:30.854Z,83.23
2022-10-19T03:24:00.832Z,82.68
2022-10-19T03:26:28.061Z,83.29
2022-10-19T03:28:55.117Z,83.28
2022-10-19T03:31:22.188Z,83.75
2022-10-19T03:33:50.418Z,83.63
2022-10-19T03:36:23.209Z,83.51
2022-10-19T03:38:51.874Z,83.90
2022-10-19T03:41:23.938Z,84.09
2022-10-19T03:43:51.419Z,84.33
2022-10-19T03:46:19.114Z,84.09
2022-10-19T03:48:46.615Z,83.98
2022-10-19T03:51:19.851Z,83.58
2022-10-19T03:53:47.641Z,83.96
2022-10-19T03:56:16.590Z,84.12
2022-10-19T03:58:45.200Z,84.48
2022-10-19T04:01:15.880Z,84.42
2022-10-19T04:03:43.220Z,84.50
2022-10-19T04:06:15.842Z,84.87
2022-10-19T04:08:48.468Z,84.94
2022-10-19T04:11:15.937Z,86.42
2022-10-19T04:13:43.195Z,85.75
2022-10-19T04:16:13.522Z,85.46
2022-10-19T04:18:40.624Z,85.74
2022-10-19T04:21:07.880Z,85.71
2022-10-19T04:23:36.017Z,85.70
2022-10-19T04:26:08.014Z,85.54
2022-10-19T04:28:35.382Z,85.89
2022-10-19T04:31:04.285Z,86.00
2022-10-19T04:33:32.249Z,85.55
2022-10-19T04:36:08.312Z,85.45
2022-10-19T04:38:36.747Z,85.25
2022-10-19T04:41:06.232Z,84.93
2022-10-19T04:43:33.576Z,85.21
2022-10-19T04:46:05.587Z,84.59
2022-10-19T04:48:34.336Z,85.08
2022-10-19T04:51:01.798Z,84.66
2022-10-19T04:53:29.121Z,84.40
2022-10-19T04:55:56.527Z,84.66
2022-10-19T04:58:24.103Z,84.47
2022-10-19T05:00:51.847Z,84.27
2022-10-19T05:03:19.318Z,83.98
2022-10-19T05:05:46.539Z,84.08
2022-10-19T05:08:13.601Z,83.86
2022-10-19T05:10:44.247Z,83.53
2022-10-19T05:13:14.213Z,83.37
2022-10-19T05:15:41.371Z,83.37
2022-10-19T05:18:08.423Z,83.48
2022-10-19T05:20:35.578Z,83.34
2022-10-19T05:23:06.300Z,83.58
2022-10-19T05:25:34.567Z,83.34
2022-10-19T05:28:01.632Z,83.22
2022-10-19T05:30:28.684Z,83.90
2022-10-19T05:32:55.770Z,83.63
2022-10-19T05:35:22.934Z,84.10
2022-10-19T05:37:55.200Z,83.74
2022-10-19T05:40:22.297Z,83.56
2022-10-19T05:42:49.329Z,83.68
2022-10-19T05:45:16.350Z,83.53
2022-10-19T05:47:43.405Z,83.58
2022-10-19T05:50:10.481Z,83.58
2022-10-19T05:52:37.690Z,83.64
2022-10-19T05:55:05.124Z,83.67
2022-10-19T05:57:33.105Z,83.83
2022-10-19T06:00:00.478Z,83.56
2022-10-19T06:02:27.575Z,83.77
2022-10-19T06:04:54.698Z,83.81
2022-10-19T06:07:21.823Z,83.70
2022-10-19T06:09:48.956Z,83.69
2022-10-19T06:12:21.488Z,84.09
2022-10-19T06:14:52.697Z,83.40
2022-10-19T06:17:19.808Z,83.31
2022-10-19T06:19:46.849Z,83.11
2022-10-19T06:22:13.897Z,83.59
2022-10-19T06:24:40.954Z,83.84
2022-10-19T06:27:08.165Z,83.09
2022-10-19T06:29:35.439Z,82.96
2022-10-19T06:32:02.811Z,82.45
2022-10-19T06:34:30.003Z,82.43
2022-10-19T06:36:57.199Z,82.27
2022-10-19T06:39:24.231Z,82.42
2022-10-19T06:41:51.264Z,82.38
2022-10-19T06:44:18.538Z,82.50
2022-10-19T06:46:45.581Z,82.77
2022-10-19T06:49:13.810Z,81.83
2022-10-19T06:51:40.872Z,81.85
2022-10-19T06:54:09.035Z,81.72
2022-10-19T06:56:36.213Z,81.82
2022-10-19T06:59:03.417Z,81.26
2022-10-19T07:01:30.738Z,81.38
2022-10-19T07:03:57.879Z,80.93
2022-10-19T07:06:26.801Z,81.20
2022-10-19T07:08:53.902Z,81.21
2022-10-19T07:11:22.507Z,80.88
2022-10-19T07:13:50.096Z,80.52
2022-10-19T07:16:21.136Z,80.24
2022-10-19T07:18:50.801Z,81.02
2022-10-19T07:21:19.223Z,80.61
2022-10-19T07:23:47.336Z,80.29
2022-10-19T07:26:23.164Z,80.96
2022-10-19T07:28:50.796Z,80.61
2022-10-19T07:31:20.703Z,79.28
2022-10-19T07:33:51.499Z,79.77
2022-10-19T07:36:18.578Z,79.06
2022-10-19T07:38:45.689Z,78.84
2022-10-19T07:41:14.976Z,78.95
2022-10-19T07:43:43.743Z,78.87
2022-10-19T07:46:13.864Z,77.72
2022-10-19T07:48:41.191Z,78.37
2022-10-19T07:51:10.065Z,77.80
2022-10-19T07:53:38.218Z,78.73
2022-10-19T07:56:07.251Z,77.20
2022-10-19T07:58:34.777Z,77.58
2022-10-19T08:01:16.529Z,76.54
2022-10-19T08:04:31.769Z,76.28
2022-10-19T08:06:31.594Z,76.76
2022-10-19T08:09:01.884Z,76.58
2022-10-19T08:11:34.245Z,76.61
2022-10-19T08:14:05.083Z,76.22
2022-10-19T08:16:38.938Z,75.79
2022-10-19T08:19:08.322Z,75.74
2022-10-19T08:21:36.849Z,75.93
2022-10-19T08:24:04.731Z,75.12
2022-10-19T08:26:33.102Z,75.68
2022-10-19T08:29:04.456Z,76.29
2022-10-19T08:31:31.996Z,75.47
2022-10-19T08:33:59.467Z,75.11
2022-10-19T08:36:27.541Z,75.12
2022-10-19T08:38:54.694Z,74.61
2022-10-19T08:41:24.837Z,74.19
2022-10-19T08:43:57.795Z,74.77
2022-10-19T08:46:39.774Z,74.08
2022-10-19T08:49:10.061Z,73.70
2022-10-19T08:51:40.104Z,73.64
2022-10-19T08:54:12.615Z,73.43
2022-10-19T08:56:51.513Z,72.87
2022-10-19T08:59:25.601Z,72.84
2022-10-19T09:01:58.875Z,72.71
2022-10-19T09:04:50.926Z,71.96
2022-10-19T09:07:32.550Z,72.02
2022-10-19T09:10:20.843Z,71.10
2022-10-19T09:12:58.561Z,72.15
2022-10-19T09:15:32.711Z,71.54
2022-10-19T09:18:01.104Z,71.91
2022-10-19T09:20:39.781Z,70.21
2022-10-19T09:23:39.077Z,69.97
2022-10-19T09:26:20.669Z,70.18
2022-10-19T09:28:51.132Z,71.30
2022-10-19T09:31:42.763Z,69.52
2022-10-19T09:34:20.564Z,69.63
2022-10-19T09:36:56.986Z,71.05
2022-10-19T09:39:28.683Z,70.78
2022-10-19T09:41:58.929Z,71.13
2022-10-19T09:44:26.957Z,71.41
2022-10-19T09:47:35.484Z,71.41
2022-10-19T09:50:24.029Z,71.81
2022-10-19T09:52:58.098Z,71.76
2022-10-19T09:55:28.761Z,71.13
2022-10-19T09:58:16.049Z,71.21
2022-10-19T10:00:47.363Z,69.65
2022-10-19T10:03:35.203Z,69.52
2022-10-19T10:06:06.057Z,70.42
2022-10-19T10:08:37.090Z,70.43
2022-10-19T10:11:12.673Z,70.13
2022-10-19T10:13:42.621Z,70.15
2022-10-19T10:16:12.840Z,69.62
2022-10-19T10:18:53.147Z,69.42
2022-10-19T10:21:36.397Z,69.62
2022-10-19T10:24:17.013Z,69.22
2022-10-19T10:26:47.367Z,69.99
2022-10-19T10:29:21.376Z,68.91
2022-10-19T10:31:58.959Z,67.76
2022-10-19T10:34:50.097Z,67.68
2022-10-19T10:37:26.029Z,66.94
2022-10-19T10:39:56.675Z,67.63
2022-10-19T10:42:33.236Z,67.26
2022-10-19T10:45:00.887Z,68.73
2022-10-19T10:47:28.575Z,67.95
2022-10-19T10:50:01.243Z,67.81
2022-10-19T10:52:31.226Z,67.81
2022-10-19T10:55:01.513Z,67.42
2022-10-19T10:57:32.845Z,67.97
2022-10-19T11:00:15.737Z,67.01
2022-10-19T11:03:04.910Z,67.32
2022-10-19T11:05:38.971Z,67.21
2022-10-19T11:08:12.100Z,67.55
2022-10-19T11:10:59.051Z,67.70
2022-10-19T11:13:33.410Z,67.42
2022-10-19T11:16:10.925Z,66.66
2022-10-19T11:18:43.149Z,66.06
2022-10-19T11:21:13.549Z,66.31
2022-10-19T11:23:50.188Z,66.17
2022-10-19T11:26:47.770Z,66.61
2022-10-19T11:29:45.585Z,65.87
2022-10-19T11:32:32.310Z,65.87
2022-10-19T11:35:24.905Z,65.88
2022-10-19T11:38:22.077Z,65.25
2022-10-19T11:41:18.352Z,65.26
2022-10-19T11:43:54.802Z,64.68
2022-10-19T11:46:46.641Z,65.36
2022-10-19T11:49:39.315Z,64.16
2022-10-19T11:52:18.142Z,65.41
2022-10-19T11:55:06.632Z,63.71
2022-10-19T11:57:59.771Z,64.35
2022-10-19T12:00:45.089Z,64.00
2022-10-19T12:03:26.141Z,62.54
2022-10-19T12:06:16.636Z,62.42
2022-10-19T12:09:01.921Z,62.68
2022-10-19T12:11:45.631Z,62.83
2022-10-19T12:14:23.763Z,63.39
2022-10-19T12:16:54.714Z,64.17
2022-10-19T12:19:25.517Z,63.72
2022-10-19T12:21:55.653Z,64.46
2022-10-19T12:24:24.837Z,64.05
2022-10-19T12:26:54.151Z,64.12
2022-10-19T12:29:27.109Z,64.22
2022-10-19T12:31:55.529Z,64.54
2022-10-19T12:34:45.300Z,64.16
2022-10-19T12:37:18.558Z,64.37
2022-10-19T12:40:03.500Z,64.57
2022-10-19T12:42:51.693Z,64.21
2022-10-19T12:45:54.995Z,63.88
2022-10-19T12:48:24.675Z,63.91
2022-10-19T12:50:56.713Z,63.79
2022-10-19T12:56:07.524Z,63.79
2022-10-19T12:58:47.682Z,64.04
2022-10-19T13:01:33.194Z,64.07
2022-10-19T13:04:13.042Z,62.53
2022-10-19T13:06:44.249Z,62.91
2022-10-19T13:09:32.292Z,62.66
2022-10-19T13:12:17.751Z,62.21
2022-10-19T13:14:59.265Z,62.62
2022-10-19T13:17:40.646Z,62.35
2022-10-19T13:20:13.867Z,63.14
2022-10-19T13:22:49.157Z,63.41
2022-10-19T13:25:16.118Z,63.09
2022-10-19T13:27:44.457Z,62.43
2022-10-19T13:30:36.701Z,61.34
2022-10-19T13:33:25.334Z,61.22
2022-10-19T13:35:58.609Z,61.08
2022-10-19T13:38:33.095Z,61.46
2022-10-19T13:41:25.564Z,60.60
2022-10-19T13:44:01.174Z,60.41
2022-10-19T13:46:31.097Z,61.29
2022-10-19T13:49:32.505Z,60.65
2022-10-19T13:52:21.311Z,60.96
2022-10-19T13:54:51.234Z,60.66
2022-10-19T13:57:47.813Z,60.62
2022-10-19T14:00:24.784Z,60.67
2022-10-19T14:03:20.658Z,60.59
2022-10-19T14:06:09.201Z,61.09
2022-10-19T14:09:07.618Z,61.26
2022-10-19T14:11:37.145Z,60.72
2022-10-19T14:14:21.738Z,59.91
2022-10-19T14:16:50.964Z,60.63
2022-10-19T14:19:27.608Z,60.68
2022-10-19T14:21:57.009Z,60.87
2022-10-19T14:24:35.253Z,60.71
2022-10-19T14:27:04.300Z,60.62
2022-10-19T14:29:36.089Z,61.13
2022-10-19T14:32:03.621Z,60.36
2022-10-19T14:34:30.717Z,60.91
2022-10-19T14:36:57.808Z,60.31
2022-10-19T14:39:33.092Z,59.78
2022-10-19T14:42:05.598Z,60.50
2022-10-19T14:44:38.634Z,59.85
2022-10-19T14:47:27.215Z,59.39
2022-10-19T14:49:54.327Z,60.08
2022-10-19T14:52:37.551Z,60.19
2022-10-19T14:55:12.631Z,60.78
2022-10-19T14:57:43.842Z,60.75
2022-10-19T15:00:22.439Z,62.30
2022-10-19T15:03:05.127Z,62.18
2022-10-19T15:05:35.143Z,61.07
2022-10-19T15:08:10.219Z,60.44
2022-10-19T15:10:45.777Z,59.93
2022-10-19T15:13:21.735Z,60.13
2022-10-19T15:15:52.575Z,60.37
2022-10-19T15:18:44.005Z,60.25
2022-10-19T15:21:20.704Z,61.63
2022-10-19T15:23:49.669Z,61.37
2022-10-19T15:26:25.953Z,61.89
2022-10-19T15:28:54.829Z,61.99
2022-10-19T15:31:26.842Z,62.27
2022-10-19T15:33:58.619Z,62.31
2022-10-19T15:36:26.584Z,62.38
2022-10-19T15:41:54.725Z,61.55
2022-10-19T15:44:54.207Z,61.96
2022-10-19T15:47:23.439Z,62.49
2022-10-19T15:50:00.848Z,63.35
2022-10-19T15:52:34.376Z,64.00
2022-10-19T15:55:01.636Z,64.70
2022-10-19T15:57:32.177Z,63.87
2022-10-19T16:00:02.176Z,62.98
2022-10-19T16:02:29.284Z,62.83
2022-10-19T16:04:56.412Z,63.45
2022-10-19T16:07:28.650Z,64.29
2022-10-19T16:09:56.142Z,65.03
2022-10-19T16:12:24.424Z,65.73
2022-10-19T16:14:51.610Z,65.46
2022-10-19T16:17:18.803Z,65.74
2022-10-19T16:19:46.236Z,66.08
2022-10-19T16:22:13.864Z,66.49
2022-10-19T16:24:41.371Z,66.17
2022-10-19T16:27:08.684Z,66.13
2022-10-19T16:29:35.751Z,65.84
2022-10-19T16:32:03.058Z,65.95
2022-10-19T16:34:30.212Z,65.90
2022-10-19T16:36:57.555Z,65.68
2022-10-19T16:39:25.643Z,65.48
2022-10-19T16:41:52.735Z,65.72
2022-10-19T16:44:19.901Z,65.32
2022-10-19T16:46:46.954Z,64.49
2022-10-19T16:49:14.106Z,63.09
2022-10-19T16:51:41.984Z,62.57
2022-10-19T16:54:11.252Z,62.75
2022-10-19T16:56:44.615Z,62.63
2022-10-19T16:59:14.641Z,62.68
2022-10-19T17:01:44.016Z,63.39
2022-10-19T17:04:12.650Z,63.68
2022-10-19T17:06:40.737Z,64.41
2022-10-19T17:11:55.191Z,64.80
2022-10-19T17:14:22.356Z,64.72
2022-10-19T17:16:49.608Z,64.44
2022-10-19T17:19:16.816Z,64.90
2022-10-19T17:21:43.965Z,64.17
2022-10-19T17:24:20.246Z,63.47
2022-10-19T17:26:50.244Z,63.61
2022-10-19T17:29:17.486Z,62.75
2022-10-19T17:31:44.715Z,62.89
2022-10-19T17:34:11.936Z,63.44
2022-10-19T17:36:42.136Z,63.44
2022-10-19T17:39:13.376Z,63.13
2022-10-19T17:41:40.698Z,63.70
2022-10-19T17:44:08.001Z,64.11
2022-10-19T17:46:35.186Z,63.98
2022-10-19T17:49:02.925Z,62.68
2022-10-19T17:51:32.482Z,63.43
2022-10-19T17:54:02.350Z,63.51
2022-10-19T17:56:29.902Z,63.71
2022-10-19T17:58:57.691Z,63.98
2022-10-19T18:01:25.587Z,64.68
2022-10-19T18:03:53.015Z,64.36
2022-10-19T18:06:25.843Z,64.57
2022-10-19T18:08:55.629Z,64.87
2022-10-19T18:11:25.448Z,65.10
2022-10-19T18:13:55.326Z,65.25
2022-10-19T18:16:27.632Z,65.81
2022-10-19T18:18:56.826Z,66.04
2022-10-19T18:21:27.578Z,66.05
2022-10-19T18:23:56.592Z,66.35
2022-10-19T18:26:25.379Z,66.16
2022-10-19T18:28:53.473Z,66.34
2022-10-19T18:31:31.807Z,66.59
2022-10-19T18:34:03.476Z,66.95
2022-10-19T18:36:31.916Z,66.94
2022-10-19T18:39:02.296Z,66.87
2022-10-19T18:41:29.906Z,67.28
2022-10-19T18:43:59.581Z,67.63
2022-10-19T18:46:27.394Z,67.46
2022-10-19T18:48:54.645Z,67.89
2022-10-19T18:51:22.829Z,67.94
2022-10-19T18:53:50.422Z,67.89
2022-10-19T18:56:19.658Z,67.79
2022-10-19T18:58:47.284Z,68.98
2022-10-19T19:01:19.594Z,68.43
2022-10-19T19:03:49.686Z,68.35
2022-10-19T19:06:22.235Z,68.36
2022-10-19T19:08:49.502Z,68.60
2022-10-19T19:11:26.609Z,68.81
2022-10-19T19:14:03.355Z,68.59
2022-10-19T19:16:33.643Z,68.82
2022-10-19T19:19:00.920Z,68.79
2022-10-19T19:21:29.529Z,69.28
2022-10-19T19:23:58.925Z,69.48
2022-10-19T19:26:29.954Z,69.90
2022-10-19T19:28:57.566Z,70.61
2022-10-19T19:31:24.957Z,70.63
2022-10-19T19:33:52.126Z,71.46
2022-10-19T19:36:20.053Z,71.68
2022-10-19T19:38:48.904Z,71.71
2022-10-19T19:41:16.741Z,71.68
2022-10-19T19:43:44.017Z,71.87
2022-10-19T19:46:13.998Z,71.84
2022-10-19T19:48:43.540Z,72.41
2022-10-19T19:51:13.143Z,72.52
2022-10-19T19:53:40.702Z,72.82
2022-10-19T19:56:09.003Z,72.42
2022-10-19T19:58:36.379Z,72.66
2022-10-19T20:01:19.608Z,73.26
2022-10-19T20:03:47.874Z,73.39
2022-10-19T20:06:19.699Z,73.51
2022-10-19T20:08:49.444Z,73.98
2022-10-19T20:11:17.596Z,73.29
2022-10-19T20:13:45.668Z,73.42
2022-10-19T20:16:18.104Z,73.46
2022-10-19T20:18:46.644Z,73.60
2022-10-19T20:21:14.282Z,74.00
2022-10-19T20:23:45.483Z,74.61
2022-10-19T20:26:17.184Z,75.11
2022-10-19T20:28:44.553Z,74.23
2022-10-19T20:31:12.185Z,74.57
2022-10-19T20:33:40.432Z,74.54
2022-10-19T20:36:12.997Z,74.52
2022-10-19T20:38:40.928Z,73.88
2022-10-19T20:41:09.433Z,74.17
2022-10-19T20:43:37.475Z,73.78
2022-10-19T20:46:25.331Z,74.45
2022-10-19T20:48:53.099Z,74.19
2022-10-19T20:51:27.632Z,74.50
2022-10-19T20:53:59.249Z,74.07
2022-10-19T20:56:28.877Z,75.04
2022-10-19T20:59:06.998Z,75.05
2022-10-19T21:01:35.732Z,75.18
2022-10-19T21:04:04.735Z,75.58
2022-10-19T21:06:33.654Z,74.97
2022-10-19T21:09:00.962Z,75.18
2022-10-19T21:11:30.445Z,75.10
2022-10-19T21:14:03.255Z,75.65
2022-10-19T21:16:33.582Z,75.32
2022-10-19T21:19:01.797Z,75.00
2022-10-19T21:21:31.919Z,75.24
2022-10-19T21:24:08.804Z,75.57
2022-10-19T21:26:36.459Z,75.14
2022-10-19T21:29:04.560Z,75.32
2022-10-19T21:31:31.648Z,75.40
2022-10-19T21:33:58.724Z,74.88
2022-10-19T21:36:25.932Z,74.78
2022-10-19T21:38:53.005Z,75.26
2022-10-19T21:41:25.322Z,74.56
2022-10-19T21:43:54.568Z,74.56
2022-10-19T21:46:23.026Z,75.65
2022-10-19T21:48:50.550Z,74.94
2022-10-19T21:51:21.769Z,75.34
2022-10-19T21:53:49.088Z,75.33
2022-10-19T21:56:16.439Z,74.72
2022-10-19T21:58:50.071Z,74.61
2022-10-19T22:01:18.314Z,74.94
2022-10-19T22:03:45.382Z,74.88
2022-10-19T22:06:13.622Z,75.13
2022-10-19T22:08:45.040Z,75.43
2022-10-19T22:11:13.775Z,75.37
2022-10-19T22:13:41.134Z,75.18
2022-10-19T22:16:14.709Z,76.00
2022-10-19T22:18:42.481Z,75.92
2022-10-19T22:21:21.773Z,74.96
2022-10-19T22:23:53.614Z,74.60
2022-10-19T22:26:29.280Z,74.81
2022-10-19T22:28:57.521Z,75.17
2022-10-19T22:31:25.540Z,74.69
2022-10-19T22:33:52.732Z,74.58
2022-10-19T22:36:20.038Z,75.07
2022-10-19T22:38:47.139Z,74.96
2022-10-19T22:41:14.181Z,75.21
2022-10-19T22:43:41.232Z,74.87
2022-10-19T22:46:08.313Z,74.85
2022-10-19T22:48:35.510Z,75.90
2022-10-19T22:51:02.597Z,75.46
2022-10-19T22:53:29.666Z,76.15
2022-10-19T22:55:56.689Z,75.58
2022-10-19T22:58:23.786Z,76.10
2022-10-19T23:01:02.059Z,75.90
2022-10-19T23:03:29.157Z,76.21
2022-10-19T23:05:56.928Z,75.90
2022-10-19T23:08:24.060Z,76.38
2022-10-19T23:10:51.662Z,77.30
2022-10-19T23:13:19.301Z,77.30
2022-10-19T23:15:46.473Z,77.02
2022-10-19T23:18:13.961Z,76.58
2022-10-19T23:20:41.172Z,76.81
2022-10-19T23:23:08.790Z,76.86
2022-10-19T23:25:35.908Z,76.66
2022-10-19T23:28:03.103Z,76.86
2022-10-19T23:30:30.425Z,77.29
2022-10-19T23:32:57.817Z,76.88
2022-10-19T23:35:25.019Z,77.29
2022-10-19T23:37:52.210Z,76.59
2022-10-19T23:40:19.492Z,76.63
2022-10-19T23:42:46.630Z,77.15
2022-10-19T23:45:15.224Z,76.80
2022-10-19T23:47:42.412Z,77.32
2022-10-19T23:50:09.692Z,77.33
2022-10-19T23:52:36.915Z,76.76
2022-10-19T23:55:04.529Z,77.10
2022-10-19T23:57:31.853Z,76.91
2022-10-19T23:59:59.111Z,76.69
